sensor_id;sensor_type;location;lat;lon;timestamp;temperature;humidity
17284;DHT22;8760;52.248;20.952;2023-09-19T00:01:39;19.30;99.90
17284;DHT22;8760;52.248;20.952;2023-09-19T00:04:07;19.40;99.90
17284;DHT22;8760;52.248;20.952;2023-09-19T00:06:36;19.30;99.90
17284;DHT22;8760;52.248;20.952;2023-09-19T00:09:03;19.20;99.90
17284;DHT22;8760;52.248;20.952;2023-09-19T00:11:30;19.30;99.90
17284;DHT22;8760;52.248;20.952;2023-09-19T00:13:57;19.30;99.90
17284;DHT22;8760;52.248;20.952;2023-09-19T00:16:25;19.30;99.90
17284;DHT22;8760;52.248;20.952;2023-09-19T00:18:52;19.30;99.90
17284;DHT22;8760;52.248;20.952;2023-09-19T00:21:22;19.20;99.90
17284;DHT22;8760;52.248;20.952;2023-09-19T00:23:49;19.20;99.90
17284;DHT22;8760;52.248;20.952;2023-09-19T00:26:17;19.30;99.90
17284;DHT22;8760;52.248;20.952;2023-09-19T00:28:44;19.20;99.90
17284;DHT22;8760;52.248;20.952;2023-09-19T00:31:12;19.20;99.90
17284;DHT22;8760;52.248;20.952;2023-09-19T00:33:39;19.20;99.90
17284;DHT22;8760;52.248;20.952;2023-09-19T00:36:06;19.20;99.90
17284;DHT22;8760;52.248;20.952;2023-09-19T00:38:34;19.20;99.90
17284;DHT22;8760;52.248;20.952;2023-09-19T00:41:02;19.10;99.90
17284;DHT22;8760;52.248;20.952;2023-09-19T00:43:29;19.10;99.90
17284;DHT22;8760;52.248;20.952;2023-09-19T00:45:59;19.10;99.90
17284;DHT22;8760;52.248;20.952;2023-09-19T00:48:29;19.10;99.90
17284;DHT22;8760;52.248;20.952;2023-09-19T00:50:59;19.00;99.90
17284;DHT22;8760;52.248;20.952;2023-09-19T00:53:31;19.10;99.90
17284;DHT22;8760;52.248;20.952;2023-09-19T00:56:01;19.10;99.90
17284;DHT22;8760;52.248;20.952;2023-09-19T00:58:29;19.00;99.90
17284;DHT22;8760;52.248;20.952;2023-09-19T01:00:59;19.00;99.90
17284;DHT22;8760;52.248;20.952;2023-09-19T01:03:27;19.00;99.90
17284;DHT22;8760;52.248;20.952;2023-09-19T01:05:54;19.00;99.90
17284;DHT22;8760;52.248;20.952;2023-09-19T01:08:21;19.00;99.90
17284;DHT22;8760;52.248;20.952;2023-09-19T01:10:52;18.90;99.90
17284;DHT22;8760;52.248;20.952;2023-09-19T01:13:28;18.90;99.90
17284;DHT22;8760;52.248;20.952;2023-09-19T01:16:03;18.80;99.90
17284;DHT22;8760;52.248;20.952;2023-09-19T01:18:38;18.80;99.90
17284;DHT22;8760;52.248;20.952;2023-09-19T01:21:13;18.80;99.90
17284;DHT22;8760;52.248;20.952;2023-09-19T01:24:10;18.70;99.90
17284;DHT22;8760;52.248;20.952;2023-09-19T01:27:05;18.70;99.90
17284;DHT22;8760;52.248;20.952;2023-09-19T01:29:39;18.70;99.90
17284;DHT22;8760;52.248;20.952;2023-09-19T01:32:09;18.70;99.90
17284;DHT22;8760;52.248;20.952;2023-09-19T01:34:46;18.70;99.90
17284;DHT22;8760;52.248;20.952;2023-09-19T01:37:14;18.70;99.90
17284;DHT22;8760;52.248;20.952;2023-09-19T01:39:45;18.60;99.90
17284;DHT22;8760;52.248;20.952;2023-09-19T01:42:21;18.70;99.90
17284;DHT22;8760;52.248;20.952;2023-09-19T01:44:54;18.70;99.90
17284;DHT22;8760;52.248;20.952;2023-09-19T01:47:31;18.70;99.90
17284;DHT22;8760;52.248;20.952;2023-09-19T01:50:11;18.80;99.90
17284;DHT22;8760;52.248;20.952;2023-09-19T01:52:45;18.80;99.90
17284;DHT22;8760;52.248;20.952;2023-09-19T01:55:14;18.70;99.90
17284;DHT22;8760;52.248;20.952;2023-09-19T01:57:51;18.80;99.90
17284;DHT22;8760;52.248;20.952;2023-09-19T02:00:22;18.70;99.90
17284;DHT22;8760;52.248;20.952;2023-09-19T02:02:51;18.80;99.90
17284;DHT22;8760;52.248;20.952;2023-09-19T02:05:24;18.70;99.90
17284;DHT22;8760;52.248;20.952;2023-09-19T02:07:53;18.80;99.90
17284;DHT22;8760;52.248;20.952;2023-09-19T02:10:21;18.80;99.90
17284;DHT22;8760;52.248;20.952;2023-09-19T02:12:49;18.80;99.90
17284;DHT22;8760;52.248;20.952;2023-09-19T02:15:16;18.70;99.90
17284;DHT22;8760;52.248;20.952;2023-09-19T02:17:43;18.70;99.90
17284;DHT22;8760;52.248;20.952;2023-09-19T02:20:14;18.70;99.90
17284;DHT22;8760;52.248;20.952;2023-09-19T02:22:42;18.70;99.90
17284;DHT22;8760;52.248;20.952;2023-09-19T02:25:09;18.60;99.90
17284;DHT22;8760;52.248;20.952;2023-09-19T02:27:36;18.60;99.90
17284;DHT22;8760;52.248;20.952;2023-09-19T02:30:06;18.60;99.90
17284;DHT22;8760;52.248;20.952;2023-09-19T02:32:33;18.60;99.90
17284;DHT22;8760;52.248;20.952;2023-09-19T02:35:05;18.60;99.90
17284;DHT22;8760;52.248;20.952;2023-09-19T02:37:34;18.60;99.90
17284;DHT22;8760;52.248;20.952;2023-09-19T02:40:01;18.60;99.90
17284;DHT22;8760;52.248;20.952;2023-09-19T02:42:28;18.50;99.90
17284;DHT22;8760;52.248;20.952;2023-09-19T02:44:55;18.50;99.90
17284;DHT22;8760;52.248;20.952;2023-09-19T02:47:22;18.50;99.90
17284;DHT22;8760;52.248;20.952;2023-09-19T02:49:49;18.50;99.90
17284;DHT22;8760;52.248;20.952;2023-09-19T02:52:16;18.40;99.90
17284;DHT22;8760;52.248;20.952;2023-09-19T02:54:44;18.50;99.90
17284;DHT22;8760;52.248;20.952;2023-09-19T02:57:12;18.40;99.90
17284;DHT22;8760;52.248;20.952;2023-09-19T02:59:42;18.40;99.90
17284;DHT22;8760;52.248;20.952;2023-09-19T03:02:09;18.40;99.90
17284;DHT22;8760;52.248;20.952;2023-09-19T03:04:36;18.30;99.90
17284;DHT22;8760;52.248;20.952;2023-09-19T03:07:03;18.30;99.90
17284;DHT22;8760;52.248;20.952;2023-09-19T03:09:31;18.30;99.90
17284;DHT22;8760;52.248;20.952;2023-09-19T03:11:59;18.30;99.90
17284;DHT22;8760;52.248;20.952;2023-09-19T03:14:26;18.20;99.90
17284;DHT22;8760;52.248;20.952;2023-09-19T03:16:55;18.20;99.90
17284;DHT22;8760;52.248;20.952;2023-09-19T03:19:22;18.10;99.90
17284;DHT22;8760;52.248;20.952;2023-09-19T03:21:49;18.10;99.90
17284;DHT22;8760;52.248;20.952;2023-09-19T03:24:16;18.20;99.90
17284;DHT22;8760;52.248;20.952;2023-09-19T03:26:43;18.20;99.90
17284;DHT22;8760;52.248;20.952;2023-09-19T03:29:12;18.20;99.90
17284;DHT22;8760;52.248;20.952;2023-09-19T03:31:39;18.10;99.90
17284;DHT22;8760;52.248;20.952;2023-09-19T03:34:07;18.10;99.90
17284;DHT22;8760;52.248;20.952;2023-09-19T03:36:34;18.10;99.90
17284;DHT22;8760;52.248;20.952;2023-09-19T03:39:02;18.10;99.90
17284;DHT22;8760;52.248;20.952;2023-09-19T03:41:30;18.10;99.90
17284;DHT22;8760;52.248;20.952;2023-09-19T03:43:58;18.20;99.90
17284;DHT22;8760;52.248;20.952;2023-09-19T03:46:27;18.10;99.90
17284;DHT22;8760;52.248;20.952;2023-09-19T03:48:54;18.10;99.90
17284;DHT22;8760;52.248;20.952;2023-09-19T03:51:21;18.10;99.90
17284;DHT22;8760;52.248;20.952;2023-09-19T03:53:48;18.10;99.90
17284;DHT22;8760;52.248;20.952;2023-09-19T03:56:15;18.10;99.90
17284;DHT22;8760;52.248;20.952;2023-09-19T03:58:42;18.10;99.90
17284;DHT22;8760;52.248;20.952;2023-09-19T04:01:10;18.10;99.90
17284;DHT22;8760;52.248;20.952;2023-09-19T04:03:40;18.10;99.90
17284;DHT22;8760;52.248;20.952;2023-09-19T04:06:13;18.10;99.90
17284;DHT22;8760;52.248;20.952;2023-09-19T04:08:40;18.10;99.90
17284;DHT22;8760;52.248;20.952;2023-09-19T04:11:07;18.10;99.90
17284;DHT22;8760;52.248;20.952;2023-09-19T04:13:34;18.20;99.90
17284;DHT22;8760;52.248;20.952;2023-09-19T04:16:01;18.20;99.90
17284;DHT22;8760;52.248;20.952;2023-09-19T04:18:29;18.20;99.90
17284;DHT22;8760;52.248;20.952;2023-09-19T04:20:59;18.20;99.90
17284;DHT22;8760;52.248;20.952;2023-09-19T04:23:29;18.10;99.90
17284;DHT22;8760;52.248;20.952;2023-09-19T04:25:56;18.00;99.90
17284;DHT22;8760;52.248;20.952;2023-09-19T04:28:23;18.00;99.90
17284;DHT22;8760;52.248;20.952;2023-09-19T04:30:50;18.00;99.90
17284;DHT22;8760;52.248;20.952;2023-09-19T04:33:17;18.00;99.90
17284;DHT22;8760;52.248;20.952;2023-09-19T04:35:44;18.00;99.90
17284;DHT22;8760;52.248;20.952;2023-09-19T04:38:12;18.00;99.90
17284;DHT22;8760;52.248;20.952;2023-09-19T04:40:40;18.10;99.90
17284;DHT22;8760;52.248;20.952;2023-09-19T04:43:07;18.10;99.90
17284;DHT22;8760;52.248;20.952;2023-09-19T04:45:34;18.10;99.90
17284;DHT22;8760;52.248;20.952;2023-09-19T04:48:01;18.00;99.90
17284;DHT22;8760;52.248;20.952;2023-09-19T04:50:28;18.00;99.90
17284;DHT22;8760;52.248;20.952;2023-09-19T04:52:55;18.00;99.90
17284;DHT22;8760;52.248;20.952;2023-09-19T04:55:23;18.10;99.90
17284;DHT22;8760;52.248;20.952;2023-09-19T04:57:51;18.10;99.90
17284;DHT22;8760;52.248;20.952;2023-09-19T05:00:19;18.10;99.90
17284;DHT22;8760;52.248;20.952;2023-09-19T05:02:50;18.20;99.90
17284;DHT22;8760;52.248;20.952;2023-09-19T05:05:18;18.30;99.90
17284;DHT22;8760;52.248;20.952;2023-09-19T05:07:45;18.30;99.90
17284;DHT22;8760;52.248;20.952;2023-09-19T05:10:12;18.30;99.90
17284;DHT22;8760;52.248;20.952;2023-09-19T05:12:41;18.30;99.90
17284;DHT22;8760;52.248;20.952;2023-09-19T05:15:10;18.40;99.90
17284;DHT22;8760;52.248;20.952;2023-09-19T05:17:37;18.40;99.90
17284;DHT22;8760;52.248;20.952;2023-09-19T05:20:06;18.50;99.90
17284;DHT22;8760;52.248;20.952;2023-09-19T05:22:40;18.50;99.90
17284;DHT22;8760;52.248;20.952;2023-09-19T05:25:08;18.50;99.90
17284;DHT22;8760;52.248;20.952;2023-09-19T05:27:35;18.50;99.90
17284;DHT22;8760;52.248;20.952;2023-09-19T05:30:05;18.60;99.90
17284;DHT22;8760;52.248;20.952;2023-09-19T05:32:32;18.60;99.90
17284;DHT22;8760;52.248;20.952;2023-09-19T05:35:01;18.70;99.90
17284;DHT22;8760;52.248;20.952;2023-09-19T05:37:28;18.60;99.90
17284;DHT22;8760;52.248;20.952;2023-09-19T05:39:55;18.60;99.90
17284;DHT22;8760;52.248;20.952;2023-09-19T05:42:23;18.60;99.90
17284;DHT22;8760;52.248;20.952;2023-09-19T05:44:49;18.70;99.90
17284;DHT22;8760;52.248;20.952;2023-09-19T05:47:17;18.70;99.90
17284;DHT22;8760;52.248;20.952;2023-09-19T05:49:45;18.80;99.90
17284;DHT22;8760;52.248;20.952;2023-09-19T05:52:13;18.80;99.90
17284;DHT22;8760;52.248;20.952;2023-09-19T05:54:40;18.90;99.90
17284;DHT22;8760;52.248;20.952;2023-09-19T05:57:08;19.00;99.90
17284;DHT22;8760;52.248;20.952;2023-09-19T05:59:37;19.00;99.90
17284;DHT22;8760;52.248;20.952;2023-09-19T06:02:05;19.00;99.90
17284;DHT22;8760;52.248;20.952;2023-09-19T06:04:34;19.10;99.90
17284;DHT22;8760;52.248;20.952;2023-09-19T06:07:01;19.20;99.90
17284;DHT22;8760;52.248;20.952;2023-09-19T06:09:29;19.20;99.90
17284;DHT22;8760;52.248;20.952;2023-09-19T06:11:57;19.30;99.90
17284;DHT22;8760;52.248;20.952;2023-09-19T06:14:25;19.30;99.90
17284;DHT22;8760;52.248;20.952;2023-09-19T06:16:52;19.30;99.90
17284;DHT22;8760;52.248;20.952;2023-09-19T06:19:19;19.40;99.90
17284;DHT22;8760;52.248;20.952;2023-09-19T06:21:49;19.40;99.90
17284;DHT22;8760;52.248;20.952;2023-09-19T06:24:16;19.50;99.90
17284;DHT22;8760;52.248;20.952;2023-09-19T06:26:45;19.40;99.90
17284;DHT22;8760;52.248;20.952;2023-09-19T06:29:11;19.40;99.90
17284;DHT22;8760;52.248;20.952;2023-09-19T06:31:40;19.50;99.90
17284;DHT22;8760;52.248;20.952;2023-09-19T06:34:07;19.50;99.90
17284;DHT22;8760;52.248;20.952;2023-09-19T06:36:33;19.50;99.90
17284;DHT22;8760;52.248;20.952;2023-09-19T06:39:02;19.60;99.90
17284;DHT22;8760;52.248;20.952;2023-09-19T06:41:29;19.70;99.90
17284;DHT22;8760;52.248;20.952;2023-09-19T06:43:57;19.80;99.90
17284;DHT22;8760;52.248;20.952;2023-09-19T06:46:24;20.00;99.90
17284;DHT22;8760;52.248;20.952;2023-09-19T06:48:51;20.30;99.90
17284;DHT22;8760;52.248;20.952;2023-09-19T06:51:18;20.50;99.90
17284;DHT22;8760;52.248;20.952;2023-09-19T06:53:45;20.70;99.90
17284;DHT22;8760;52.248;20.952;2023-09-19T06:56:13;20.90;99.90
17284;DHT22;8760;52.248;20.952;2023-09-19T06:58:40;21.10;99.90
17284;DHT22;8760;52.248;20.952;2023-09-19T07:01:09;21.30;99.90
17284;DHT22;8760;52.248;20.952;2023-09-19T07:03:35;21.60;99.90
17284;DHT22;8760;52.248;20.952;2023-09-19T07:06:02;21.90;99.90
17284;DHT22;8760;52.248;20.952;2023-09-19T07:08:30;22.00;99.90
17284;DHT22;8760;52.248;20.952;2023-09-19T07:10:57;22.20;99.90
17284;DHT22;8760;52.248;20.952;2023-09-19T07:13:25;22.30;99.90
17284;DHT22;8760;52.248;20.952;2023-09-19T07:15:52;22.50;99.90
17284;DHT22;8760;52.248;20.952;2023-09-19T07:18:19;22.70;99.90
17284;DHT22;8760;52.248;20.952;2023-09-19T07:20:47;22.80;99.90
17284;DHT22;8760;52.248;20.952;2023-09-19T07:23:15;22.70;99.90
17284;DHT22;8760;52.248;20.952;2023-09-19T07:25:43;22.60;99.90
17284;DHT22;8760;52.248;20.952;2023-09-19T07:28:12;22.50;99.90
17284;DHT22;8760;52.248;20.952;2023-09-19T07:30:40;22.50;99.90
17284;DHT22;8760;52.248;20.952;2023-09-19T07:33:08;22.40;99.90
17284;DHT22;8760;52.248;20.952;2023-09-19T07:35:36;22.40;99.90
17284;DHT22;8760;52.248;20.952;2023-09-19T07:38:05;22.40;99.90
17284;DHT22;8760;52.248;20.952;2023-09-19T07:40:32;22.40;99.90
17284;DHT22;8760;52.248;20.952;2023-09-19T07:42:59;22.40;99.90
17284;DHT22;8760;52.248;20.952;2023-09-19T07:45:27;22.40;99.90
17284;DHT22;8760;52.248;20.952;2023-09-19T07:47:57;22.30;99.90
17284;DHT22;8760;52.248;20.952;2023-09-19T07:50:24;22.20;99.90
17284;DHT22;8760;52.248;20.952;2023-09-19T07:52:52;22.10;99.90
17284;DHT22;8760;52.248;20.952;2023-09-19T07:55:20;22.00;99.90
17284;DHT22;8760;52.248;20.952;2023-09-19T07:57:49;21.90;99.90
17284;DHT22;8760;52.248;20.952;2023-09-19T08:00:16;21.90;99.90
17284;DHT22;8760;52.248;20.952;2023-09-19T08:02:43;21.80;99.90
17284;DHT22;8760;52.248;20.952;2023-09-19T08:05:13;21.80;99.90
17284;DHT22;8760;52.248;20.952;2023-09-19T08:07:43;21.80;99.90
17284;DHT22;8760;52.248;20.952;2023-09-19T08:10:14;21.90;99.90
17284;DHT22;8760;52.248;20.952;2023-09-19T08:12:46;22.00;99.90
17284;DHT22;8760;52.248;20.952;2023-09-19T08:15:14;22.10;99.90
17284;DHT22;8760;52.248;20.952;2023-09-19T08:17:41;22.10;99.90
17284;DHT22;8760;52.248;20.952;2023-09-19T08:20:09;22.00;99.90
17284;DHT22;8760;52.248;20.952;2023-09-19T08:22:43;22.00;99.90
17284;DHT22;8760;52.248;20.952;2023-09-19T08:25:11;22.00;99.90
17284;DHT22;8760;52.248;20.952;2023-09-19T08:27:38;22.10;99.90
17284;DHT22;8760;52.248;20.952;2023-09-19T08:30:06;22.10;99.90
17284;DHT22;8760;52.248;20.952;2023-09-19T08:32:33;22.30;99.90
17284;DHT22;8760;52.248;20.952;2023-09-19T08:35:00;22.40;99.90
17284;DHT22;8760;52.248;20.952;2023-09-19T08:37:27;22.50;99.90
17284;DHT22;8760;52.248;20.952;2023-09-19T08:39:55;22.40;99.90
17284;DHT22;8760;52.248;20.952;2023-09-19T08:42:23;22.30;99.90
17284;DHT22;8760;52.248;20.952;2023-09-19T08:44:50;22.10;99.90
17284;DHT22;8760;52.248;20.952;2023-09-19T08:47:27;21.90;99.90
17284;DHT22;8760;52.248;20.952;2023-09-19T08:50:01;21.70;99.90
17284;DHT22;8760;52.248;20.952;2023-09-19T08:52:42;21.70;99.90
17284;DHT22;8760;52.248;20.952;2023-09-19T08:55:12;21.70;99.90
17284;DHT22;8760;52.248;20.952;2023-09-19T08:57:46;21.60;99.90
17284;DHT22;8760;52.248;20.952;2023-09-19T09:00:16;21.60;99.90
17284;DHT22;8760;52.248;20.952;2023-09-19T09:02:47;21.60;99.90
17284;DHT22;8760;52.248;20.952;2023-09-19T09:05:15;21.60;99.90
17284;DHT22;8760;52.248;20.952;2023-09-19T09:07:49;21.60;99.90
17284;DHT22;8760;52.248;20.952;2023-09-19T09:10:18;21.60;99.90
17284;DHT22;8760;52.248;20.952;2023-09-19T09:12:48;21.50;99.90
17284;DHT22;8760;52.248;20.952;2023-09-19T09:15:17;21.60;99.90
17284;DHT22;8760;52.248;20.952;2023-09-19T09:17:47;21.50;99.90
17284;DHT22;8760;52.248;20.952;2023-09-19T09:20:16;21.40;99.90
17284;DHT22;8760;52.248;20.952;2023-09-19T09:22:51;21.20;99.90
17284;DHT22;8760;52.248;20.952;2023-09-19T09:25:20;21.10;99.90
17284;DHT22;8760;52.248;20.952;2023-09-19T09:27:59;21.00;99.90
17284;DHT22;8760;52.248;20.952;2023-09-19T09:30:34;20.80;99.90
17284;DHT22;8760;52.248;20.952;2023-09-19T09:33:09;20.60;99.90
17284;DHT22;8760;52.248;20.952;2023-09-19T09:35:37;20.50;99.90
17284;DHT22;8760;52.248;20.952;2023-09-19T09:38:06;20.30;99.90
17284;DHT22;8760;52.248;20.952;2023-09-19T09:40:48;20.20;99.90
17284;DHT22;8760;52.248;20.952;2023-09-19T09:43:26;20.10;99.90
17284;DHT22;8760;52.248;20.952;2023-09-19T09:46:07;20.00;99.90
17284;DHT22;8760;52.248;20.952;2023-09-19T09:48:59;19.80;99.90
17284;DHT22;8760;52.248;20.952;2023-09-19T09:51:42;19.60;99.90
17284;DHT22;8760;52.248;20.952;2023-09-19T09:54:13;19.50;99.90
17284;DHT22;8760;52.248;20.952;2023-09-19T09:56:59;19.40;99.90
17284;DHT22;8760;52.248;20.952;2023-09-19T09:59:48;19.40;99.90
17284;DHT22;8760;52.248;20.952;2023-09-19T10:02:17;19.30;99.90
17284;DHT22;8760;52.248;20.952;2023-09-19T10:04:50;19.30;99.90
17284;DHT22;8760;52.248;20.952;2023-09-19T10:07:26;19.30;99.90
17284;DHT22;8760;52.248;20.952;2023-09-19T10:09:57;19.30;99.90
17284;DHT22;8760;52.248;20.952;2023-09-19T10:12:31;19.20;99.90
17284;DHT22;8760;52.248;20.952;2023-09-19T10:15:00;19.20;99.90
17284;DHT22;8760;52.248;20.952;2023-09-19T10:17:29;19.30;99.90
17284;DHT22;8760;52.248;20.952;2023-09-19T10:19:57;19.30;99.90
17284;DHT22;8760;52.248;20.952;2023-09-19T10:22:26;19.40;99.90
17284;DHT22;8760;52.248;20.952;2023-09-19T10:24:57;19.50;99.90
17284;DHT22;8760;52.248;20.952;2023-09-19T10:27:26;19.50;99.90
17284;DHT22;8760;52.248;20.952;2023-09-19T10:29:57;19.50;99.90
17284;DHT22;8760;52.248;20.952;2023-09-19T10:32:26;19.60;99.90
17284;DHT22;8760;52.248;20.952;2023-09-19T10:34:55;19.70;99.90
17284;DHT22;8760;52.248;20.952;2023-09-19T10:37:24;19.70;99.90
17284;DHT22;8760;52.248;20.952;2023-09-19T10:39:54;19.70;99.90
17284;DHT22;8760;52.248;20.952;2023-09-19T10:42:23;19.80;99.90
17284;DHT22;8760;52.248;20.952;2023-09-19T10:44:58;19.90;99.90
17284;DHT22;8760;52.248;20.952;2023-09-19T10:47:26;19.80;99.90
17284;DHT22;8760;52.248;20.952;2023-09-19T10:49:53;19.80;99.90
17284;DHT22;8760;52.248;20.952;2023-09-19T10:52:23;19.80;99.90
17284;DHT22;8760;52.248;20.952;2023-09-19T10:54:53;19.80;99.90
17284;DHT22;8760;52.248;20.952;2023-09-19T10:57:23;19.80;99.90
17284;DHT22;8760;52.248;20.952;2023-09-19T11:00:05;19.80;99.90
17284;DHT22;8760;52.248;20.952;2023-09-19T11:03:18;19.80;99.90
17284;DHT22;8760;52.248;20.952;2023-09-19T11:06:01;19.90;99.90
17284;DHT22;8760;52.248;20.952;2023-09-19T11:08:31;19.90;99.90
17284;DHT22;8760;52.248;20.952;2023-09-19T11:10:59;19.80;99.90
17284;DHT22;8760;52.248;20.952;2023-09-19T11:13:30;19.80;99.90
17284;DHT22;8760;52.248;20.952;2023-09-19T11:16:05;19.80;99.90
17284;DHT22;8760;52.248;20.952;2023-09-19T11:18:51;19.90;99.90
17284;DHT22;8760;52.248;20.952;2023-09-19T11:21:53;20.00;99.90
17284;DHT22;8760;52.248;20.952;2023-09-19T11:24:31;20.00;99.90
17284;DHT22;8760;52.248;20.952;2023-09-19T11:27:11;20.00;99.90
17284;DHT22;8760;52.248;20.952;2023-09-19T11:29:40;20.10;99.90
17284;DHT22;8760;52.248;20.952;2023-09-19T11:32:08;20.20;99.90
17284;DHT22;8760;52.248;20.952;2023-09-19T11:34:59;20.20;99.90
17284;DHT22;8760;52.248;20.952;2023-09-19T11:38:00;20.30;99.90
17284;DHT22;8760;52.248;20.952;2023-09-19T11:40:32;20.20;99.90
17284;DHT22;8760;52.248;20.952;2023-09-19T11:43:31;20.20;99.90
17284;DHT22;8760;52.248;20.952;2023-09-19T11:46:06;20.10;99.90
17284;DHT22;8760;52.248;20.952;2023-09-19T11:48:35;20.10;99.90
17284;DHT22;8760;52.248;20.952;2023-09-19T11:51:13;20.10;99.90
17284;DHT22;8760;52.248;20.952;2023-09-19T11:53:48;20.00;99.90
17284;DHT22;8760;52.248;20.952;2023-09-19T11:56:16;20.00;99.90
17284;DHT22;8760;52.248;20.952;2023-09-19T11:58:44;20.00;99.90
17284;DHT22;8760;52.248;20.952;2023-09-19T12:01:14;20.10;99.90
17284;DHT22;8760;52.248;20.952;2023-09-19T12:03:50;20.10;99.90
17284;DHT22;8760;52.248;20.952;2023-09-19T12:06:19;20.10;99.90
17284;DHT22;8760;52.248;20.952;2023-09-19T12:08:47;20.10;99.90
17284;DHT22;8760;52.248;20.952;2023-09-19T12:11:16;20.10;99.90
17284;DHT22;8760;52.248;20.952;2023-09-19T12:13:46;20.10;99.90
17284;DHT22;8760;52.248;20.952;2023-09-19T12:16:15;20.10;99.90
17284;DHT22;8760;52.248;20.952;2023-09-19T12:18:43;20.00;99.90
17284;DHT22;8760;52.248;20.952;2023-09-19T12:21:24;20.10;99.90
17284;DHT22;8760;52.248;20.952;2023-09-19T12:24:06;20.20;99.90
17284;DHT22;8760;52.248;20.952;2023-09-19T12:26:41;20.20;99.90
17284;DHT22;8760;52.248;20.952;2023-09-19T12:29:19;20.20;99.90
17284;DHT22;8760;52.248;20.952;2023-09-19T12:31:50;20.20;99.90
17284;DHT22;8760;52.248;20.952;2023-09-19T12:34:23;20.20;99.90
17284;DHT22;8760;52.248;20.952;2023-09-19T12:37:09;20.10;99.90
17284;DHT22;8760;52.248;20.952;2023-09-19T12:39:42;20.10;99.90
17284;DHT22;8760;52.248;20.952;2023-09-19T12:42:10;20.00;99.90
17284;DHT22;8760;52.248;20.952;2023-09-19T12:44:41;20.00;99.90
17284;DHT22;8760;52.248;20.952;2023-09-19T12:47:11;19.90;99.90
17284;DHT22;8760;52.248;20.952;2023-09-19T12:50:10;19.90;99.90
17284;DHT22;8760;52.248;20.952;2023-09-19T12:52:45;19.90;99.90
17284;DHT22;8760;52.248;20.952;2023-09-19T12:55:26;20.00;99.90
17284;DHT22;8760;52.248;20.952;2023-09-19T12:58:02;20.00;99.90
17284;DHT22;8760;52.248;20.952;2023-09-19T13:00:34;20.10;99.90
17284;DHT22;8760;52.248;20.952;2023-09-19T13:03:18;20.10;99.90
17284;DHT22;8760;52.248;20.952;2023-09-19T13:05:51;20.10;99.90
17284;DHT22;8760;52.248;20.952;2023-09-19T13:08:24;20.10;99.90
17284;DHT22;8760;52.248;20.952;2023-09-19T13:11:02;20.10;99.90
17284;DHT22;8760;52.248;20.952;2023-09-19T13:13:28;20.10;99.90
17284;DHT22;8760;52.248;20.952;2023-09-19T13:15:55;20.00;99.90
17284;DHT22;8760;52.248;20.952;2023-09-19T13:18:23;20.00;99.90
17284;DHT22;8760;52.248;20.952;2023-09-19T13:21:05;20.10;99.90
17284;DHT22;8760;52.248;20.952;2023-09-19T13:23:33;20.00;99.90
17284;DHT22;8760;52.248;20.952;2023-09-19T13:26:02;20.10;99.90
17284;DHT22;8760;52.248;20.952;2023-09-19T13:28:31;20.10;99.90
17284;DHT22;8760;52.248;20.952;2023-09-19T13:30:58;20.10;99.90
17284;DHT22;8760;52.248;20.952;2023-09-19T13:33:25;20.20;99.90
17284;DHT22;8760;52.248;20.952;2023-09-19T13:35:52;20.20;99.90
17284;DHT22;8760;52.248;20.952;2023-09-19T13:38:19;20.20;99.90
17284;DHT22;8760;52.248;20.952;2023-09-19T13:40:48;20.20;99.90
17284;DHT22;8760;52.248;20.952;2023-09-19T13:43:18;20.30;99.90
17284;DHT22;8760;52.248;20.952;2023-09-19T13:45:45;20.30;99.90
17284;DHT22;8760;52.248;20.952;2023-09-19T13:48:12;20.30;99.90
17284;DHT22;8760;52.248;20.952;2023-09-19T13:50:40;20.30;99.90
17284;DHT22;8760;52.248;20.952;2023-09-19T13:53:07;20.40;99.90
17284;DHT22;8760;52.248;20.952;2023-09-19T13:55:34;20.40;99.90
17284;DHT22;8760;52.248;20.952;2023-09-19T13:58:04;20.40;99.90
17284;DHT22;8760;52.248;20.952;2023-09-19T14:00:32;20.40;99.90
17284;DHT22;8760;52.248;20.952;2023-09-19T14:03:00;20.40;99.90
17284;DHT22;8760;52.248;20.952;2023-09-19T14:05:27;20.40;99.90
17284;DHT22;8760;52.248;20.952;2023-09-19T14:07:55;20.40;99.90
17284;DHT22;8760;52.248;20.952;2023-09-19T14:10:22;20.40;99.90
17284;DHT22;8760;52.248;20.952;2023-09-19T14:12:50;20.40;99.90
17284;DHT22;8760;52.248;20.952;2023-09-19T14:15:19;20.40;99.90
17284;DHT22;8760;52.248;20.952;2023-09-19T14:17:47;20.40;99.90
17284;DHT22;8760;52.248;20.952;2023-09-19T14:20:14;20.40;99.90
17284;DHT22;8760;52.248;20.952;2023-09-19T14:22:41;20.40;99.90
17284;DHT22;8760;52.248;20.952;2023-09-19T14:25:08;20.50;99.90
17284;DHT22;8760;52.248;20.952;2023-09-19T14:27:35;20.50;99.90
17284;DHT22;8760;52.248;20.952;2023-09-19T14:30:03;20.50;99.90
17284;DHT22;8760;52.248;20.952;2023-09-19T14:32:31;20.50;99.90
17284;DHT22;8760;52.248;20.952;2023-09-19T14:34:58;20.50;99.90
17284;DHT22;8760;52.248;20.952;2023-09-19T14:37:25;20.50;99.90
17284;DHT22;8760;52.248;20.952;2023-09-19T14:39:53;20.50;99.90
17284;DHT22;8760;52.248;20.952;2023-09-19T14:42:20;20.50;99.90
17284;DHT22;8760;52.248;20.952;2023-09-19T14:44:55;20.50;99.90
17284;DHT22;8760;52.248;20.952;2023-09-19T14:47:22;20.50;99.90
17284;DHT22;8760;52.248;20.952;2023-09-19T14:49:50;20.50;99.90
17284;DHT22;8760;52.248;20.952;2023-09-19T14:52:17;20.60;99.90
17284;DHT22;8760;52.248;20.952;2023-09-19T14:54:44;20.60;99.90
17284;DHT22;8760;52.248;20.952;2023-09-19T14:57:11;20.60;99.90
17284;DHT22;8760;52.248;20.952;2023-09-19T14:59:39;20.60;99.90
17284;DHT22;8760;52.248;20.952;2023-09-19T15:02:07;20.60;99.90
17284;DHT22;8760;52.248;20.952;2023-09-19T15:04:34;20.60;99.90
17284;DHT22;8760;52.248;20.952;2023-09-19T15:07:02;20.60;99.90
17284;DHT22;8760;52.248;20.952;2023-09-19T15:09:30;20.50;99.90
17284;DHT22;8760;52.248;20.952;2023-09-19T15:11:59;20.50;99.90
17284;DHT22;8760;52.248;20.952;2023-09-19T15:14:26;20.50;99.90
17284;DHT22;8760;52.248;20.952;2023-09-19T15:16:52;20.50;99.90
17284;DHT22;8760;52.248;20.952;2023-09-19T15:19:19;20.50;99.90
17284;DHT22;8760;52.248;20.952;2023-09-19T15:21:48;20.50;99.90
17284;DHT22;8760;52.248;20.952;2023-09-19T15:24:16;20.40;99.90
17284;DHT22;8760;52.248;20.952;2023-09-19T15:26:43;20.40;99.90
17284;DHT22;8760;52.248;20.952;2023-09-19T15:29:11;20.30;99.90
17284;DHT22;8760;52.248;20.952;2023-09-19T15:31:39;20.40;99.90
17284;DHT22;8760;52.248;20.952;2023-09-19T15:34:06;20.40;99.90
17284;DHT22;8760;52.248;20.952;2023-09-19T15:36:33;20.50;99.90
17284;DHT22;8760;52.248;20.952;2023-09-19T15:39:01;20.50;99.90
17284;DHT22;8760;52.248;20.952;2023-09-19T15:41:31;20.50;99.90
17284;DHT22;8760;52.248;20.952;2023-09-19T15:44:00;20.50;99.90
17284;DHT22;8760;52.248;20.952;2023-09-19T15:46:27;20.60;99.90
17284;DHT22;8760;52.248;20.952;2023-09-19T15:48:55;20.60;99.90